createdAt,value
2018-04-08T00:00:53.690Z,58.08
2018-04-08T00:01:53.581Z,58.17
2018-04-08T00:02:53.636Z,58.37
2018-04-08T00:03:53.412Z,58.46
2018-04-08T00:04:53.410Z,58.46
2018-04-08T00:05:53.268Z,58.37
2018-04-08T00:06:53.311Z,58.56
2018-04-08T00:07:53.117Z,58.17
2018-04-08T00:08:53.123Z,58.34
2018-04-08T00:09:52.944Z,58.46
2018-04-08T00:10:52.929Z,58.27
2018-04-08T00:11:52.799Z,58.46
2018-04-08T00:12:52.766Z,58.46
2018-04-08T00:13:52.662Z,58.46
2018-04-08T00:14:52.642Z,58.08
2018-04-08T00:15:52.514Z,58.37
2018-04-08T00:16:52.459Z,58.15
2018-04-08T00:17:52.318Z,58.72
2018-04-08T00:18:52.304Z,58.34
2018-04-08T00:19:52.178Z,58.15
2018-04-08T00:20:52.176Z,58.24
2018-04-08T00:21:52.004Z,58.15
2018-04-08T00:22:52.018Z,58.44
2018-04-08T00:23:51.846Z,58.27
2018-04-08T00:24:51.940Z,57.95
2018-04-08T00:25:51.704Z,58.44
2018-04-08T00:26:51.700Z,58.62
2018-04-08T00:27:51.537Z,58.24
2018-04-08T00:28:51.555Z,58.27
2018-04-08T00:29:51.385Z,58.05
2018-04-08T00:30:51.425Z,58.24
2018-04-08T00:31:51.227Z,58.24
2018-04-08T00:32:51.230Z,58.53
2018-04-08T00:33:51.181Z,58.34
2018-04-08T00:34:51.036Z,58.53
2018-04-08T00:35:50.912Z,58.34
2018-04-08T00:36:50.851Z,57.76
2018-04-08T00:37:50.763Z,57.79
2018-04-08T00:38:50.783Z,57.67
2018-04-08T00:39:50.624Z,57.95
2018-04-08T00:40:50.567Z,57.89
2018-04-08T00:41:50.454Z,57.79
2018-04-08T00:42:50.473Z,57.86
2018-04-08T00:43:50.290Z,57.86
2018-04-08T00:44:50.315Z,57.86
2018-04-08T00:45:50.132Z,57.67
2018-04-08T00:46:50.094Z,57.48
2018-04-08T00:47:49.976Z,57.86
2018-04-08T00:48:50.015Z,57.67
2018-04-08T00:49:49.834Z,57.67
2018-04-08T00:50:49.816Z,57.76
2018-04-08T00:51:49.656Z,57.86
2018-04-08T00:52:49.618Z,57.38
2018-04-08T00:53:49.509Z,57.76
2018-04-08T00:54:49.563Z,58.24
2018-04-08T00:55:49.347Z,57.76
2018-04-08T00:56:49.348Z,57.76
2018-04-08T00:57:49.187Z,57.57
2018-04-08T00:58:49.155Z,57.57
2018-04-08T00:59:49.053Z,57.86
2018-04-08T01:00:49.105Z,57.86
2018-04-08T01:01:48.870Z,57.86
2018-04-08T01:02:48.878Z,57.86
2018-04-08T01:03:48.735Z,57.86
2018-04-08T01:04:48.711Z,57.86
2018-04-08T01:05:48.578Z,57.86
2018-04-08T01:06:48.595Z,57.95
2018-04-08T01:07:48.409Z,57.95
2018-04-08T01:08:48.395Z,58.05
2018-04-08T01:09:48.265Z,57.86
2018-04-08T01:10:48.244Z,58.24
2018-04-08T01:11:48.117Z,58.34
2018-04-08T01:12:48.161Z,58.81
2018-04-08T01:13:47.937Z,58.62
2018-04-08T01:14:47.959Z,58.69
2018-04-08T01:15:47.799Z,58.50
2018-04-08T01:16:47.834Z,58.98
2018-04-08T01:17:47.630Z,59.65
2018-04-08T01:18:47.639Z,59.45
2018-04-08T01:19:47.467Z,59.36
2018-04-08T01:20:47.491Z,59.45
2018-04-08T01:21:47.339Z,59.36
2018-04-08T01:22:47.360Z,59.36
2018-04-08T01:23:47.158Z,59.65
2018-04-08T01:24:47.168Z,59.55
2018-04-08T01:25:47.026Z,59.75
2018-04-08T01:26:47.001Z,59.65
2018-04-08T01:27:46.847Z,59.75
2018-04-08T01:28:46.891Z,59.94
2018-04-08T01:29:46.701Z,60.41
2018-04-08T01:30:46.697Z,59.84
2018-04-08T01:31:46.566Z,60.61
2018-04-08T01:32:46.607Z,60.51
2018-04-08T01:33:46.390Z,59.84
2018-04-08T01:34:46.415Z,60.32
2018-04-08T01:35:46.226Z,60.13
2018-04-08T01:36:46.220Z,59.94
2018-04-08T01:37:46.066Z,60.03
2018-04-08T01:38:46.097Z,60.13
2018-04-08T01:39:45.911Z,60.38
2018-04-08T01:40:45.952Z,60.41
2018-04-08T01:41:45.751Z,60.03
2018-04-08T01:42:45.759Z,60.00
2018-04-08T01:43:45.594Z,60.22
2018-04-08T01:44:45.605Z,59.84
2018-04-08T01:45:45.530Z,60.03
2018-04-08T01:46:45.512Z,59.84
2018-04-08T01:47:45.277Z,60.03
2018-04-08T01:48:45.318Z,59.65
2018-04-08T01:49:45.129Z,60.13
2018-04-08T01:50:45.088Z,60.22
2018-04-08T01:51:44.997Z,60.32
2018-04-08T01:52:45.005Z,60.22
2018-04-08T01:53:44.810Z,60.51
2018-04-08T01:54:44.754Z,59.94
2018-04-08T01:55:44.649Z,59.94
2018-04-08T01:56:44.648Z,60.13
2018-04-08T01:57:44.500Z,60.03
2018-04-08T01:58:44.525Z,59.84
2018-04-08T01:59:44.357Z,60.03
2018-04-08T02:00:44.339Z,59.94
2018-04-08T02:01:44.185Z,59.75
2018-04-08T02:02:44.149Z,59.94
2018-04-08T02:03:44.024Z,60.03
2018-04-08T02:04:44.099Z,59.65
2018-04-08T02:05:43.872Z,59.65
2018-04-08T02:06:43.904Z,60.32
2018-04-08T02:07:43.710Z,60.13
2018-04-08T02:08:43.772Z,60.13
2018-04-08T02:09:43.576Z,60.03
2018-04-08T02:10:43.575Z,60.22
2018-04-08T02:11:43.510Z,60.41
2018-04-08T02:12:43.389Z,59.75
2018-04-08T02:13:43.244Z,60.41
2018-04-08T02:14:43.312Z,60.41
2018-04-08T02:15:43.111Z,60.10
2018-04-08T02:16:43.117Z,60.77
2018-04-08T02:17:42.947Z,60.58
2018-04-08T02:18:42.922Z,60.48
2018-04-08T02:19:42.801Z,60.86
2018-04-08T02:20:42.830Z,61.05
2018-04-08T02:21:42.625Z,60.86
2018-04-08T02:22:42.639Z,61.15
2018-04-08T02:23:42.458Z,60.86
2018-04-08T02:24:42.448Z,61.54
2018-04-08T02:25:42.318Z,61.54
2018-04-08T02:26:42.357Z,61.15
2018-04-08T02:27:42.144Z,61.25
2018-04-08T02:28:42.169Z,61.25
2018-04-08T02:29:42.011Z,61.15
2018-04-08T02:30:42.000Z,61.25
2018-04-08T02:31:41.841Z,61.72
2018-04-08T02:32:41.901Z,61.44
2018-04-08T02:33:41.676Z,61.72
2018-04-08T02:34:41.687Z,61.91
2018-04-08T02:35:41.538Z,61.82
2018-04-08T02:36:41.508Z,62.30
2018-04-08T02:37:41.366Z,62.01
2018-04-08T02:38:41.407Z,62.37
2018-04-08T02:39:41.205Z,62.46
2018-04-08T02:40:41.260Z,62.17
2018-04-08T02:41:41.068Z,62.84
2018-04-08T02:42:41.029Z,62.55
2018-04-08T02:43:40.887Z,62.65
2018-04-08T02:44:40.937Z,62.84
2018-04-08T02:45:40.756Z,62.74
2018-04-08T02:46:40.792Z,62.84
2018-04-08T02:47:40.585Z,62.84
2018-04-08T02:48:40.503Z,62.84
2018-04-08T02:49:40.427Z,63.32
2018-04-08T02:50:40.475Z,62.84
2018-04-08T02:51:40.282Z,62.84
2018-04-08T02:52:40.273Z,63.23
2018-04-08T02:53:40.114Z,63.32
2018-04-08T02:54:40.086Z,62.84
2018-04-08T02:55:39.955Z,63.03
2018-04-08T02:56:39.932Z,62.94
2018-04-08T02:57:39.791Z,63.03
2018-04-08T02:58:39.805Z,62.74
2018-04-08T02:59:39.634Z,62.65
2018-04-08T03:00:39.616Z,62.94
2018-04-08T03:01:39.490Z,62.94
2018-04-08T03:02:39.450Z,62.74
2018-04-08T03:03:39.329Z,62.37
2018-04-08T03:04:39.337Z,62.27
2018-04-08T03:05:39.159Z,62.94
2018-04-08T03:06:39.134Z,62.94
2018-04-08T03:07:39.030Z,63.23
2018-04-08T03:08:39.056Z,62.65
2018-04-08T03:09:38.850Z,62.74
2018-04-08T03:10:38.859Z,62.84
2018-04-08T03:11:38.699Z,63.03
2018-04-08T03:12:38.706Z,62.30
2018-04-08T03:13:38.536Z,62.94
2018-04-08T03:14:38.583Z,62.65
2018-04-08T03:15:38.378Z,62.08
2018-04-08T03:16:38.386Z,63.03
2018-04-08T03:17:38.332Z,62.84
2018-04-08T03:18:38.195Z,62.97
2018-04-08T03:19:38.068Z,62.46
2018-04-08T03:20:38.108Z,62.49
2018-04-08T03:21:37.912Z,62.68
2018-04-08T03:22:37.952Z,62.74
2018-04-08T03:23:37.756Z,62.17
2018-04-08T03:24:37.724Z,62.46
2018-04-08T03:25:37.595Z,62.27
2018-04-08T03:26:37.637Z,62.94
2018-04-08T03:27:37.451Z,62.94
2018-04-08T03:28:37.437Z,62.74
2018-04-08T03:29:37.286Z,62.37
2018-04-08T03:30:37.256Z,62.46
2018-04-08T03:31:37.243Z,62.59
2018-04-08T03:32:37.203Z,62.46
2018-04-08T03:33:36.964Z,62.46
2018-04-08T03:34:36.967Z,62.46
2018-04-08T03:35:36.815Z,62.74
2018-04-08T03:36:36.776Z,62.17
2018-04-08T03:37:36.677Z,62.59
2018-04-08T03:38:36.699Z,62.46
2018-04-08T03:39:36.500Z,62.46
2018-04-08T03:40:36.801Z,62.46
2018-04-08T03:41:36.342Z,62.84
2018-04-08T03:42:36.949Z,62.65
2018-04-08T03:43:36.205Z,62.74
2018-04-08T03:44:36.218Z,62.65
2018-04-08T03:45:36.025Z,62.74
2018-04-08T03:46:36.026Z,62.65
2018-04-08T03:47:35.855Z,62.94
2018-04-08T03:48:35.862Z,62.46
2018-04-08T03:49:35.709Z,63.03
2018-04-08T03:50:35.740Z,62.84
2018-04-08T03:51:35.564Z,63.13
2018-04-08T03:52:36.526Z,63.23
2018-04-08T03:53:35.410Z,62.65
2018-04-08T03:54:35.357Z,63.23
2018-04-08T03:55:35.237Z,63.03
2018-04-08T03:56:35.266Z,63.23
2018-04-08T03:57:35.074Z,63.03
2018-04-08T03:58:35.113Z,63.32
2018-04-08T03:59:34.941Z,63.23
2018-04-08T04:00:34.890Z,63.13
2018-04-08T04:01:34.764Z,63.23
2018-04-08T04:02:34.796Z,63.23
2018-04-08T04:03:34.616Z,63.13
2018-04-08T04:04:34.651Z,63.13
2018-04-08T04:05:34.455Z,63.23
2018-04-08T04:06:34.416Z,63.23
2018-04-08T04:07:34.298Z,63.51
2018-04-08T04:08:34.328Z,63.13
2018-04-08T04:09:34.155Z,63.32
2018-04-08T04:10:34.140Z,63.51
2018-04-08T04:11:33.989Z,63.51
2018-04-08T04:12:33.953Z,63.23
2018-04-08T04:13:33.816Z,63.32
2018-04-08T04:14:33.884Z,62.94
2018-04-08T04:15:33.666Z,63.23
2018-04-08T04:16:33.674Z,63.13
2018-04-08T04:17:33.509Z,62.94
2018-04-08T04:18:33.475Z,62.94
2018-04-08T04:19:33.366Z,63.03
2018-04-08T04:20:33.415Z,63.13
2018-04-08T04:21:33.194Z,62.55
2018-04-08T04:22:33.200Z,63.42
2018-04-08T04:23:33.034Z,63.03
2018-04-08T04:24:33.033Z,63.42
2018-04-08T04:25:32.893Z,63.60
2018-04-08T04:26:32.906Z,63.23
2018-04-08T04:27:32.718Z,63.42
2018-04-08T04:28:32.725Z,63.03
2018-04-08T04:29:32.594Z,63.60
2018-04-08T04:30:32.521Z,63.70
2018-04-08T04:31:32.407Z,63.80
2018-04-08T04:32:32.434Z,63.80
2018-04-08T04:33:32.251Z,63.80
2018-04-08T04:34:32.242Z,63.70
2018-04-08T04:35:32.124Z,64.28
2018-04-08T04:36:32.048Z,64.28
2018-04-08T04:37:31.940Z,64.28
2018-04-08T04:38:31.963Z,64.47
2018-04-08T04:39:31.795Z,64.37
2018-04-08T04:40:31.816Z,64.56
2018-04-08T04:41:31.619Z,63.99
2018-04-08T04:42:31.579Z,64.18
2018-04-08T04:43:31.463Z,64.18
2018-04-08T04:44:31.490Z,63.99
2018-04-08T04:45:31.322Z,64.18
2018-04-08T04:46:32.031Z,63.89
2018-04-08T04:47:31.142Z,64.28
2018-04-08T04:48:31.105Z,64.28
2018-04-08T04:49:31.004Z,64.37
2018-04-08T04:50:31.049Z,64.56
2018-04-08T04:51:30.847Z,64.37
2018-04-08T04:52:30.830Z,64.18
2018-04-08T04:53:30.675Z,64.18
2018-04-08T04:54:30.635Z,64.28
2018-04-08T04:55:30.534Z,63.89
2018-04-08T04:56:30.580Z,63.80
2018-04-08T04:57:30.372Z,63.89
2018-04-08T04:58:30.358Z,63.89
2018-04-08T04:59:30.201Z,63.99
2018-04-08T05:00:30.164Z,63.70
2018-04-08T05:01:30.067Z,63.51
2018-04-08T05:02:30.079Z,63.42
2018-04-08T05:03:29.900Z,63.70
2018-04-08T05:04:29.886Z,63.51
2018-04-08T05:05:29.726Z,63.42
2018-04-08T05:06:29.714Z,63.23
2018-04-08T05:07:29.576Z,63.23
2018-04-08T05:08:29.601Z,63.13
2018-04-08T05:09:29.417Z,62.94
2018-04-08T05:10:29.416Z,62.74
2018-04-08T05:11:29.289Z,63.23
2018-04-08T05:12:29.215Z,62.46
2018-04-08T05:13:29.101Z,62.94
2018-04-08T05:14:29.132Z,63.42
2018-04-08T05:15:28.945Z,62.84
2018-04-08T05:16:28.969Z,62.94
2018-04-08T05:17:28.795Z,63.13
2018-04-08T05:18:28.746Z,63.23
2018-04-08T05:19:28.628Z,63.51
2018-04-08T05:20:28.665Z,63.70
2018-04-08T05:21:28.485Z,62.84
2018-04-08T05:22:28.470Z,63.13
2018-04-08T05:23:28.344Z,63.60
2018-04-08T05:24:28.382Z,63.51
2018-04-08T05:25:28.166Z,63.51
2018-04-08T05:26:28.184Z,63.32
2018-04-08T05:27:28.002Z,63.13
2018-04-08T05:28:28.033Z,63.03
2018-04-08T05:29:27.844Z,63.23
2018-04-08T05:30:27.924Z,63.42
2018-04-08T05:31:27.762Z,63.51
2018-04-08T05:32:27.713Z,63.89
2018-04-08T05:33:27.556Z,63.80
2018-04-08T05:34:27.528Z,63.89
2018-04-08T05:35:27.385Z,63.89
2018-04-08T05:36:27.428Z,63.89
2018-04-08T05:37:27.225Z,63.51
2018-04-08T05:38:27.271Z,63.23
2018-04-08T05:39:27.062Z,63.03
2018-04-08T05:40:27.058Z,63.23
2018-04-08T05:41:26.910Z,63.13
2018-04-08T05:42:26.854Z,63.03
2018-04-08T05:43:26.778Z,62.94
2018-04-08T05:44:26.763Z,63.42
2018-04-08T05:45:26.666Z,63.42
2018-04-08T05:46:26.572Z,63.13
2018-04-08T05:47:26.436Z,63.13
2018-04-08T05:48:26.426Z,63.80
2018-04-08T05:49:26.279Z,63.80
2018-04-08T05:50:26.295Z,63.89
2018-04-08T05:51:26.130Z,64.28
2018-04-08T05:52:26.155Z,64.37
2018-04-08T05:53:25.975Z,64.37
2018-04-08T05:54:25.945Z,64.56
2018-04-08T05:55:25.805Z,64.85
2018-04-08T05:56:25.817Z,64.37
2018-04-08T05:57:25.656Z,64.56
2018-04-08T05:58:25.636Z,64.28
2018-04-08T05:59:25.522Z,63.80
2018-04-08T06:00:25.539Z,64.37
2018-04-08T06:01:25.342Z,64.37
2018-04-08T06:02:25.350Z,64.09
2018-04-08T06:03:25.192Z,64.18
2018-04-08T06:04:25.182Z,64.47
2018-04-08T06:05:25.027Z,65.61
2018-04-08T06:06:25.078Z,64.75
2018-04-08T06:07:24.872Z,65.81
2018-04-08T06:08:24.871Z,65.61
2018-04-08T06:09:24.705Z,65.04
2018-04-08T06:10:24.723Z,67.43
2018-04-08T06:11:24.547Z,66.57
2018-04-08T06:12:24.594Z,66.00
2018-04-08T06:13:24.452Z,65.33
2018-04-08T06:14:24.401Z,65.42
2018-04-08T06:15:24.255Z,67.05
2018-04-08T06:16:24.209Z,66.57
2018-04-08T06:17:24.077Z,64.66
2018-04-08T06:18:24.134Z,64.50
2018-04-08T06:19:23.921Z,66.41
2018-04-08T06:20:24.007Z,64.69
2018-04-08T06:21:23.769Z,63.83
2018-04-08T06:22:23.741Z,66.22
2018-04-08T06:23:23.612Z,64.22
2018-04-08T06:24:23.662Z,63.93
2018-04-08T06:25:23.471Z,64.28
2018-04-08T06:26:23.458Z,65.33
2018-04-08T06:27:23.304Z,65.52
2018-04-08T06:28:23.276Z,65.61
2018-04-08T06:29:23.151Z,64.66
2018-04-08T06:30:23.220Z,64.66
2018-04-08T06:31:22.977Z,65.33
2018-04-08T06:32:22.984Z,65.71
2018-04-08T06:33:22.835Z,64.75
2018-04-08T06:34:22.792Z,65.23
2018-04-08T06:35:22.698Z,65.52
2018-04-08T06:36:22.707Z,65.42
2018-04-08T06:37:22.513Z,65.33
2018-04-08T06:38:22.530Z,64.95
2018-04-08T06:39:22.411Z,65.14
2018-04-08T06:40:22.349Z,65.42
2018-04-08T06:41:22.196Z,64.50
2018-04-08T06:42:22.232Z,64.85
2018-04-08T06:43:22.036Z,64.98
2018-04-08T06:44:22.037Z,64.50
2018-04-08T06:45:21.882Z,64.40
2018-04-08T06:46:21.915Z,64.31
2018-04-08T06:47:21.727Z,64.31
2018-04-08T06:48:21.821Z,63.83
2018-04-08T06:49:21.615Z,63.83
2018-04-08T06:50:21.574Z,64.02
2018-04-08T06:51:21.438Z,64.02
2018-04-08T06:52:21.384Z,64.79
2018-04-08T06:53:21.256Z,65.08
2018-04-08T06:54:21.291Z,64.88
2018-04-08T06:55:21.094Z,65.08
2018-04-08T06:56:21.127Z,65.17
2018-04-08T06:57:20.954Z,64.88
2018-04-08T06:58:20.938Z,64.69
2018-04-08T06:59:20.784Z,64.31
2018-04-08T07:00:20.819Z,63.64
2018-04-08T07:01:20.660Z,64.02
2018-04-08T07:02:20.631Z,63.35
2018-04-08T07:03:20.466Z,63.57
2018-04-08T07:04:20.428Z,62.62
2018-04-08T07:05:20.391Z,62.62
2018-04-08T07:06:20.379Z,61.85
2018-04-08T07:07:20.177Z,61.18
2018-04-08T07:08:20.164Z,61.76
2018-04-08T07:09:20.015Z,60.93
2018-04-08T07:10:19.987Z,60.93
2018-04-08T07:11:19.864Z,60.44
2018-04-08T07:12:19.918Z,60.54
2018-04-08T07:13:19.693Z,60.44
2018-04-08T07:14:19.687Z,60.93
2018-04-08T07:15:19.554Z,60.25
2018-04-08T07:16:19.493Z,60.44
2018-04-08T07:17:19.402Z,59.39
2018-04-08T07:18:19.466Z,58.91
2018-04-08T07:19:19.229Z,59.01
2018-04-08T07:20:19.222Z,59.01
2018-04-08T07:21:19.063Z,58.91
2018-04-08T07:22:19.047Z,59.04
2018-04-08T07:23:18.953Z,57.98
2018-04-08T07:24:18.932Z,58.84
2018-04-08T07:25:18.768Z,58.46
2018-04-08T07:26:18.738Z,58.56
2018-04-08T07:27:18.608Z,58.46
2018-04-08T07:28:18.587Z,57.98
2018-04-08T07:29:18.450Z,58.37
2018-04-08T07:30:18.453Z,58.46
2018-04-08T07:31:18.298Z,57.89
2018-04-08T07:32:18.265Z,57.79
2018-04-08T07:33:18.262Z,58.17
2018-04-08T07:34:18.167Z,58.84
2018-04-08T07:35:17.984Z,58.84
2018-04-08T07:36:17.989Z,58.37
2018-04-08T07:37:17.828Z,58.46
2018-04-08T07:38:17.830Z,58.46
2018-04-08T07:39:17.763Z,58.27
2018-04-08T07:40:17.741Z,58.46
2018-04-08T07:41:17.512Z,58.17
2018-04-08T07:42:17.512Z,58.37
2018-04-08T07:43:17.375Z,58.46
2018-04-08T07:44:17.324Z,58.56
2018-04-08T07:45:17.203Z,58.01
2018-04-08T07:46:17.237Z,58.11
2018-04-08T07:47:17.126Z,56.96
2018-04-08T07:48:17.065Z,57.06
2018-04-08T07:49:16.929Z,56.48
2018-04-08T07:50:16.839Z,56.76
2018-04-08T07:51:16.731Z,56.22
2018-04-08T07:52:16.756Z,55.93
2018-04-08T07:53:16.577Z,55.74
2018-04-08T07:54:16.668Z,55.93
2018-04-08T07:55:16.419Z,55.35
2018-04-08T07:56:16.368Z,55.07
2018-04-08T07:57:16.270Z,55.45
2018-04-08T07:58:16.284Z,55.00
2018-04-08T07:59:16.169Z,54.52
2018-04-08T08:00:16.087Z,53.85
2018-04-08T08:01:15.954Z,54.25
2018-04-08T08:02:15.911Z,53.87
2018-04-08T08:03:15.810Z,53.32
2018-04-08T08:04:15.850Z,52.08
2018-04-08T08:05:15.649Z,51.62
2018-04-08T08:06:15.618Z,50.85
2018-04-08T08:07:15.495Z,50.78
2018-04-08T08:08:15.532Z,50.08
2018-04-08T08:09:15.357Z,50.66
2018-04-08T08:10:15.338Z,51.04
2018-04-08T08:11:15.222Z,51.62
2018-04-08T08:12:15.156Z,51.14
2018-04-08T08:13:15.031Z,51.04
2018-04-08T08:14:15.102Z,51.21
2018-04-08T08:15:14.990Z,51.50
2018-04-08T08:16:14.866Z,51.59
2018-04-08T08:17:14.732Z,50.82
2018-04-08T08:18:14.804Z,51.50
2018-04-08T08:19:14.600Z,51.31
2018-04-08T08:20:14.594Z,51.59
2018-04-08T08:21:14.462Z,51.21
2018-04-08T08:22:14.406Z,51.40
2018-04-08T08:23:14.272Z,51.40
2018-04-08T08:24:14.381Z,51.31
2018-04-08T08:25:14.136Z,51.59
2018-04-08T08:26:14.135Z,50.92
2018-04-08T08:27:13.971Z,51.02
2018-04-08T08:28:13.925Z,51.04
2018-04-08T08:29:13.812Z,50.76
2018-04-08T08:30:13.871Z,51.04
2018-04-08T08:31:13.686Z,50.08
2018-04-08T08:32:13.648Z,50.85
2018-04-08T08:33:13.507Z,50.18
2018-04-08T08:34:13.557Z,49.60
2018-04-08T08:35:13.350Z,49.82
2018-04-08T08:36:13.426Z,49.99
2018-04-08T08:37:13.230Z,49.79
2018-04-08T08:38:13.188Z,49.60
2018-04-08T08:39:13.052Z,49.02
2018-04-08T08:40:13.089Z,48.93
2018-04-08T08:41:12.952Z,49.51
2018-04-08T08:42:12.932Z,49.48
2018-04-08T08:43:12.743Z,49.60
2018-04-08T08:44:12.710Z,49.02
2018-04-08T08:45:12.587Z,48.64
2018-04-08T08:46:12.622Z,48.07
2018-04-08T08:47:12.464Z,48.66
2018-04-08T08:48:12.464Z,48.47
2018-04-08T08:49:12.285Z,48.66
2018-04-08T08:50:12.340Z,48.49
2018-04-08T08:51:12.129Z,47.65
2018-04-08T08:52:12.169Z,47.85
2018-04-08T08:53:11.981Z,47.65
2018-04-08T08:55:54.061Z,47.08
2018-04-08T08:56:54.061Z,47.08
2018-04-08T08:57:53.916Z,46.77
2018-04-08T08:58:53.857Z,46.67
2018-04-08T08:59:53.816Z,46.69
2018-04-08T09:00:53.714Z,46.98
2018-04-08T09:01:53.620Z,46.81
2018-04-08T09:02:53.533Z,45.75
2018-04-08T09:03:53.422Z,46.04
2018-04-08T09:04:53.481Z,45.77
2018-04-08T09:05:53.272Z,44.49
2018-04-08T09:06:53.295Z,42.87
2018-04-08T09:07:53.162Z,41.27
2018-04-08T09:08:53.162Z,40.47
2018-04-08T09:09:52.971Z,40.50
2018-04-08T09:10:53.014Z,40.03
2018-04-08T09:11:52.822Z,39.69
2018-04-08T09:12:52.857Z,39.01
2018-04-08T09:13:52.681Z,40.63
2018-04-08T09:14:52.734Z,38.97
2018-04-08T09:15:52.530Z,39.34
2018-04-08T09:16:52.633Z,39.74
2018-04-08T09:17:52.539Z,38.58
2018-04-08T09:18:52.418Z,37.73
2018-04-08T09:19:52.236Z,37.94
2018-04-08T09:20:52.256Z,37.81
2018-04-08T09:21:52.100Z,38.13
2018-04-08T09:22:52.106Z,36.99
2018-04-08T09:23:51.968Z,35.67
2018-04-08T09:24:51.983Z,35.64
2018-04-08T09:25:51.794Z,36.30
2018-04-08T09:26:51.789Z,36.76
2018-04-08T09:27:51.679Z,37.54
2018-04-08T09:28:51.697Z,37.62
2018-04-08T09:29:51.535Z,38.28
2018-04-08T09:30:51.524Z,38.28
2018-04-08T09:31:51.372Z,38.76
2018-04-08T09:32:51.449Z,39.22
2018-04-08T09:33:51.262Z,40.63
2018-04-08T09:34:51.228Z,40.82
2018-04-08T09:35:51.128Z,40.53
2018-04-08T09:36:51.142Z,41.11
2018-04-08T09:37:50.968Z,41.20
2018-04-08T09:38:50.958Z,41.60
2018-04-08T09:39:50.900Z,41.60
2018-04-08T09:40:50.820Z,41.57
2018-04-08T09:41:50.744Z,41.88
2018-04-08T09:42:50.710Z,42.56
2018-04-08T09:43:50.529Z,42.46
2018-04-08T09:44:50.619Z,42.85
2018-04-08T09:45:50.465Z,42.18
2018-04-08T09:46:50.469Z,41.20
2018-04-08T09:47:50.235Z,41.11
2018-04-08T09:48:50.290Z,41.19
2018-04-08T09:49:50.109Z,41.98
2018-04-08T09:50:50.111Z,41.98
2018-04-08T09:51:49.955Z,41.19
2018-04-08T09:52:49.918Z,42.25
2018-04-08T09:53:49.832Z,42.05
2018-04-08T09:54:49.789Z,41.48
2018-04-08T09:55:49.669Z,41.98
2018-04-08T09:56:49.656Z,41.67
2018-04-08T09:57:49.510Z,41.98
2018-04-08T09:58:49.562Z,41.48
2018-04-08T09:59:49.432Z,41.55
2018-04-08T10:00:49.348Z,42.61
2018-04-08T10:01:49.330Z,42.80
2018-04-08T10:02:49.394Z,42.25
2018-04-08T10:03:49.148Z,42.18
2018-04-08T10:06:31.066Z,41.96
2018-04-08T10:07:31.093Z,42.25
2018-04-08T10:08:30.940Z,42.35
2018-04-08T10:09:30.902Z,42.44
2018-04-08T10:10:30.784Z,42.36
2018-04-08T10:11:30.810Z,42.18
2018-04-08T10:12:30.615Z,41.60
2018-04-08T10:13:30.591Z,41.69
2018-04-08T10:14:30.478Z,41.88
2018-04-08T10:15:30.503Z,41.60
2018-04-08T10:16:30.336Z,41.60
2018-04-08T10:17:30.332Z,41.50
2018-04-08T10:18:30.251Z,41.78
2018-04-08T10:19:30.218Z,41.23
2018-04-08T10:20:30.041Z,41.23
2018-04-08T10:21:30.060Z,40.75
2018-04-08T10:22:29.880Z,40.53
2018-04-08T10:23:29.977Z,40.65
2018-04-08T10:24:29.744Z,40.50
2018-04-08T10:25:29.747Z,40.40
2018-04-08T10:26:29.594Z,39.70
2018-04-08T10:27:29.564Z,39.61
2018-04-08T10:28:29.485Z,40.67
2018-04-08T10:29:29.474Z,40.45
2018-04-08T10:30:29.299Z,40.65
2018-04-08T10:31:29.271Z,40.17
2018-04-08T10:32:29.258Z,40.36
2018-04-08T10:33:29.223Z,40.57
2018-04-08T10:34:29.019Z,40.11
2018-04-08T10:35:28.991Z,39.34
2018-04-08T10:36:28.866Z,38.76
2018-04-08T10:37:29.972Z,38.66
2018-04-08T10:38:28.731Z,38.76
2018-04-08T10:41:10.566Z,38.39
2018-04-08T10:42:10.624Z,39.34
2018-04-08T10:43:10.449Z,39.43
2018-04-08T10:44:10.454Z,38.76
2018-04-08T10:45:10.283Z,38.58
2018-04-08T10:46:10.343Z,38.29
2018-04-08T10:47:10.136Z,38.20
2018-04-08T10:48:10.166Z,37.71
2018-04-08T10:49:10.024Z,38.08
2018-04-08T10:50:10.040Z,38.08
2018-04-08T10:51:09.849Z,37.92
2018-04-08T10:52:09.860Z,37.09
2018-04-08T10:53:09.708Z,36.24
2018-04-08T10:54:09.706Z,36.00
2018-04-08T10:55:09.576Z,34.06
2018-04-08T10:56:09.569Z,34.02
2018-04-08T10:57:09.451Z,35.07
2018-04-08T10:58:09.426Z,35.36
2018-04-08T10:59:09.292Z,35.86
2018-04-08T11:00:09.320Z,35.77
2018-04-08T11:01:09.163Z,35.78
2018-04-08T11:02:09.117Z,34.74
2018-04-08T11:03:08.996Z,33.78
2018-04-08T11:04:09.054Z,32.71
2018-04-08T11:05:08.888Z,33.88
2018-04-08T11:06:08.823Z,33.98
2018-04-08T11:07:08.737Z,34.27
2018-04-08T11:08:08.732Z,33.31
2018-04-08T11:09:08.625Z,32.94
2018-04-08T11:10:08.725Z,32.05
2018-04-08T11:11:08.450Z,31.68
2018-04-08T11:12:08.458Z,32.84
2018-04-08T11:13:08.329Z,33.02
2018-04-08T11:14:08.370Z,32.52
2018-04-08T11:15:08.214Z,32.32
2018-04-08T11:16:09.203Z,32.17
2018-04-08T11:17:08.052Z,32.55
2018-04-08T11:18:08.100Z,31.18
2018-04-08T11:19:07.902Z,31.66
2018-04-08T11:20:07.862Z,31.94
2018-04-08T11:21:07.957Z,31.94
2018-04-08T11:22:07.822Z,31.95
2018-04-08T11:23:07.666Z,31.32
2018-04-08T11:24:07.617Z,31.66
2018-04-08T11:25:07.543Z,30.60
2018-04-08T11:26:07.532Z,30.57
2018-04-08T11:27:07.401Z,29.91
2018-04-08T11:28:07.437Z,29.72
2018-04-08T11:29:07.246Z,28.67
2018-04-08T11:30:07.293Z,29.07
2018-04-08T11:31:07.132Z,28.88
2018-04-08T11:32:07.160Z,28.18
2018-04-08T11:33:06.970Z,28.01
2018-04-08T11:34:06.970Z,28.78
2018-04-08T11:35:06.855Z,28.99
2018-04-08T11:36:06.930Z,28.96
2018-04-08T11:37:06.737Z,29.42
2018-04-08T11:38:06.786Z,30.10
2018-04-08T11:39:07.178Z,30.00
2018-04-08T11:40:06.592Z,29.61
2018-04-08T11:41:06.494Z,30.85
2018-04-08T11:42:06.437Z,31.16
2018-04-08T11:43:06.346Z,30.21
2018-04-08T11:44:06.279Z,28.50
2018-04-08T11:45:06.211Z,29.24
2018-04-08T11:46:06.156Z,29.04
2018-04-08T11:47:06.098Z,28.61
2018-04-08T11:48:06.137Z,29.46
2018-04-08T11:49:05.960Z,30.61
2018-04-08T11:50:05.903Z,31.18
2018-04-08T11:51:05.836Z,31.95
2018-04-08T11:52:05.796Z,31.08
2018-04-08T11:53:05.698Z,31.94
2018-04-08T11:54:05.644Z,32.29
2018-04-08T11:55:06.171Z,33.06
2018-04-08T11:56:05.512Z,33.73
2018-04-08T11:57:05.477Z,33.91
2018-04-08T11:58:05.435Z,34.19
2018-04-08T11:59:05.301Z,34.11
2018-04-08T12:00:05.248Z,34.39
2018-04-08T12:01:05.178Z,33.91
2018-04-08T12:02:05.144Z,33.46
2018-04-08T12:03:05.041Z,32.62
2018-04-08T12:04:05.026Z,31.85
2018-04-08T12:05:04.913Z,31.97
2018-04-08T12:06:04.862Z,31.40
2018-04-08T12:07:04.769Z,31.51
2018-04-08T12:08:04.726Z,30.55
2018-04-08T12:09:04.650Z,31.01
2018-04-08T12:10:04.587Z,30.54
2018-04-08T12:11:04.556Z,31.30
2018-04-08T12:12:04.463Z,34.42
2018-04-08T12:13:04.470Z,33.73
2018-04-08T12:14:04.338Z,32.08
2018-04-08T12:15:04.304Z,32.28
2018-04-08T12:16:04.176Z,32.17
2018-04-08T12:17:04.100Z,34.38
2018-04-08T12:18:04.036Z,34.17
2018-04-08T12:19:03.960Z,33.39
2018-04-08T12:20:03.927Z,34.36
2018-04-08T12:21:03.832Z,34.46
2018-04-08T12:22:03.817Z,32.82
2018-04-08T12:23:03.683Z,33.99
2018-04-08T12:24:03.645Z,32.42
2018-04-08T12:25:03.578Z,33.01
2018-04-08T12:26:03.489Z,32.59
2018-04-08T12:27:03.416Z,32.96
2018-04-08T12:28:03.365Z,33.92
2018-04-08T12:29:03.279Z,34.22
2018-04-08T12:30:03.244Z,33.54
2018-04-08T12:31:03.139Z,33.07
2018-04-08T12:32:03.078Z,33.65
2018-04-08T12:33:03.032Z,32.97
2018-04-08T12:34:02.950Z,32.96
2018-04-08T12:35:02.880Z,34.61
2018-04-08T12:36:02.796Z,34.14
2018-04-08T12:37:02.712Z,34.22
2018-04-08T12:38:02.660Z,34.22
2018-04-08T12:39:02.576Z,33.25
2018-04-08T12:40:02.544Z,33.33
2018-04-08T12:41:02.464Z,33.52
2018-04-08T12:42:02.385Z,33.91
2018-04-08T12:43:02.294Z,34.01
2018-04-08T12:44:02.244Z,34.01
2018-04-08T12:45:02.185Z,34.11
2018-04-08T12:46:02.107Z,34.67
2018-04-08T12:47:02.021Z,35.54
2018-04-08T12:48:02.020Z,35.54
2018-04-08T12:49:01.951Z,35.64
2018-04-08T12:50:01.950Z,35.64
2018-04-08T12:51:01.781Z,35.54
2018-04-08T12:52:01.726Z,36.12
2018-04-08T12:53:01.586Z,36.00
2018-04-08T12:54:01.548Z,35.91
2018-04-08T12:55:01.455Z,36.02
2018-04-08T12:56:01.449Z,36.02
2018-04-08T12:57:01.313Z,35.54